Time;durP1;ratioP1;P1;durP2;ratioP2;P2;SDS_P1;SDS_P2;PMS_P1;PMS_P2;Temp;Humidity;BMP_temperature;BMP_pressure;BME280_temperature;BME280_humidity;BME280_pressure;Samples;Min_cycle;Max_cycle;Signal;HPM_P1;HPM_P2
2022/12/20 00:00:11;;;;;;;55.75;19.17;;;;;;;1.36;59.25;101551.09;4418615;32;20145;-82
2022/12/20 00:02:37;;;;;;;58.58;21.48;;;;;;;1.26;59.25;101556.75;4418450;32;20097;-83
2022/12/20 00:05:02;;;;;;;57.22;19.98;;;;;;;1.22;59.24;101557.47;4422884;32;20125;-82
2022/12/20 00:07:28;;;;;;;52.75;20.15;;;;;;;0.92;59.22;101568.38;4402343;32;20122;-83
2022/12/20 00:09:53;;;;;;;54.53;19.77;;;;;;;1.22;59.24;101575.44;4401202;32;20118;-83
2022/12/20 00:12:19;;;;;;;52.97;20.05;;;;;;;1.47;59.25;101574.59;4401785;32;20117;-83
2022/12/20 00:14:44;;;;;;;51.50;19.30;;;;;;;1.49;59.26;101575.50;4377589;32;20562;-83
2022/12/20 00:17:09;;;;;;;53.58;19.58;;;;;;;1.65;59.27;101580.31;4396260;32;20196;-84
2022/12/20 00:19:35;;;;;;;61.40;21.70;;;;;;;1.47;59.25;101578.03;4396381;32;20161;-84
2022/12/20 00:22:00;;;;;;;55.60;20.48;;;;;;;1.46;59.25;101581.41;4393382;32;20184;-83
2022/12/20 00:24:26;;;;;;;51.65;18.55;;;;;;;1.52;59.26;101571.34;4407603;32;20144;-84
2022/12/20 00:26:51;;;;;;;58.80;21.33;;;;;;;1.52;59.26;101573.03;4395635;32;20240;-84
2022/12/20 00:29:17;;;;;;;56.10;19.35;;;;;;;1.53;59.25;101562.81;4396495;32;21770;-83
2022/12/20 00:31:42;;;;;;;58.33;20.30;;;;;;;1.55;59.27;101550.03;4397004;32;20446;-84
2022/12/20 00:34:07;;;;;;;51.22;18.92;;;;;;;1.22;59.24;101553.22;4418088;32;21548;-85
2022/12/20 00:36:56;;;;;;;54.92;21.17;;;;;;;1.13;59.24;101557.12;4410254;32;20086;-86
2022/12/20 00:39:21;;;;;;;53.67;19.48;;;;;;;1.34;59.25;101552.75;4409542;32;20106;-86
2022/12/20 00:41:47;;;;;;;58.85;21.58;;;;;;;1.31;59.24;101551.78;4409337;32;22633;-84
2022/12/20 00:44:24;;;;;;;53.28;21.05;;;;;;;1.46;59.25;101549.75;4396926;32;20153;-85
2022/12/20 00:46:53;;;;;;;53.13;20.58;;;;;;;1.40;59.26;101552.94;4412981;32;20152;-84
2022/12/20 00:49:18;;;;;;;51.30;20.30;;;;;;;1.32;59.24;101538.13;4401758;32;20131;-85
2022/12/20 00:51:54;;;;;;;58.63;19.80;;;;;;;1.54;59.26;101533.78;4399181;32;20106;-85
2022/12/20 00:54:25;;;;;;;50.85;18.17;;;;;;;1.42;59.26;101533.38;4382444;32;23834;-87
2022/12/20 00:56:54;;;;;;;56.37;21.10;;;;;;;1.44;59.25;101531.75;4408717;32;20111;-86
2022/12/20 00:59:19;;;;;;;50.80;18.92;;;;;;;1.21;59.24;101525.81;4396071;32;25004;-85
2022/12/20 01:01:45;;;;;;;57.08;20.08;;;;;;;1.25;59.25;101516.53;4411484;32;20105;-85
2022/12/20 01:04:10;;;;;;;55.92;20.35;;;;;;;1.42;59.26;101530.81;4390285;32;20105;-86
2022/12/20 01:06:36;;;;;;;53.65;21.08;;;;;;;1.08;59.23;101530.47;4398709;32;20089;-85
2022/12/20 01:09:04;;;;;;;56.70;19.50;;;;;;;1.21;59.24;101519.81;4399781;32;20139;-86
2022/12/20 01:11:39;;;;;;;52.22;19.50;;;;;;;1.40;59.25;101518.72;4398666;32;20112;-86
2022/12/20 01:14:26;;;;;;;53.03;19.33;;;;;;;1.44;59.25;101520.59;4385231;32;20120;-86
2022/12/20 01:16:51;;;;;;;53.47;19.95;;;;;;;1.50;59.26;101511.41;4431190;32;20458;-83
2022/12/20 01:19:17;;;;;;;52.58;19.67;;;;;;;1.43;59.26;101508.59;4392988;32;20172;-85
2022/12/20 01:21:45;;;;;;;54.90;19.20;;;;;;;1.31;59.24;101515.88;4412320;32;20112;-85
2022/12/20 01:24:29;;;;;;;48.83;19.33;;;;;;;1.37;59.25;101519.50;4402403;32;20124;-86
2022/12/20 01:26:54;;;;;;;43.08;18.02;;;;;;;1.51;59.26;101519.97;4415012;32;21746;-83
2022/12/20 01:29:45;;;;;;;47.83;19.02;;;;;;;1.54;59.26;101520.94;4388452;32;20160;-85
2022/12/20 01:32:10;;;;;;;46.45;17.40;;;;;;;1.37;59.25;101516.94;4394021;32;20488;-84
2022/12/20 01:34:39;;;;;;;52.92;17.80;;;;;;;1.38;59.25;101502.41;4414749;32;20097;-85
2022/12/20 01:37:14;;;;;;;55.63;19.35;;;;;;;1.43;59.25;101488.94;4415727;32;20458;-86
2022/12/20 01:39:39;;;;;;;49.55;18.58;;;;;;;1.35;59.25;101492.91;4410953;32;20569;-84
2022/12/20 01:42:31;;;;;;;46.33;19.05;;;;;;;1.25;59.25;101483.19;4416642;32;20200;-85
2022/12/20 01:45:00;;;;;;;55.42;18.48;;;;;;;1.29;59.25;101476.47;4421354;32;20106;-84
2022/12/20 01:47:25;;;;;;;42.50;16.08;;;;;;;1.42;59.26;101478.59;4406474;32;20098;-83
2022/12/20 01:49:57;;;;;;;51.60;18.92;;;;;;;1.26;59.24;101479.81;4401362;32;20161;-86
2022/12/20 01:52:39;;;;;;;52.08;17.62;;;;;;;1.33;59.25;101468.91;4400635;32;20112;-85
2022/12/20 01:55:46;;;;;;;52.70;17.98;;;;;;;1.38;59.25;101459.66;4403745;32;20089;-85
2022/12/20 01:58:12;;;;;;;42.97;17.15;;;;;;;1.25;59.25;101454.97;4389083;32;20094;-85
2022/12/20 02:00:40;;;;;;;46.50;18.45;;;;;;;1.46;59.25;101444.53;4378320;32;20099;-86
2022/12/20 02:03:07;;;;;;;53.90;18.48;;;;;;;1.42;59.26;101447.81;4408668;32;20124;-85
2022/12/20 02:07:19;;;;;;;48.30;17.00;;;;;;;1.24;59.24;101445.53;4410514;32;20528;-85
2022/12/20 02:09:29;;;;;;;43.42;17.80;;;;;;;1.31;59.24;101442.34;4379243;32;92637;-85
2022/12/20 02:12:25;;;;;;;49.07;16.40;;;;;;;1.41;59.26;101436.66;4396136;32;20470;-83
2022/12/20 02:15:18;;;;;;;47.67;17.92;;;;;;;1.31;59.24;101436.34;4409739;32;20110;-85
2022/12/20 02:17:54;;;;;;;48.28;18.00;;;;;;;1.29;59.25;101430.28;4413935;32;20102;-85
2022/12/20 02:20:58;;;;;;;46.10;17.50;;;;;;;1.31;59.24;101424.38;4420860;32;20090;-85
2022/12/20 02:26:39;;;;;;;50.65;17.85;;;;;;;1.33;59.25;101433.00;4423651;32;20177;-84
2022/12/20 02:29:19;;;;;;;44.33;17.08;;;;;;;1.35;59.25;101435.59;4422272;32;20093;-84
2022/12/20 02:32:17;;;;;;;43.03;17.50;;;;;;;1.35;59.25;101440.75;4421587;32;20097;-85
2022/12/20 02:34:51;;;;;;;48.83;18.17;;;;;;;1.38;59.25;101439.16;4400850;32;20110;-85
2022/12/20 02:37:47;;;;;;;50.25;18.23;;;;;;;1.28;59.25;101433.69;4419928;32;21503;-85
2022/12/20 02:40:18;;;;;;;51.97;17.35;;;;;;;1.34;59.25;101429.59;4419996;32;20112;-85
2022/12/20 02:42:43;;;;;;;48.87;19.20;;;;;;;1.37;59.25;101422.00;4408160;32;20081;-84
2022/12/20 02:45:15;;;;;;;48.25;16.95;;;;;;;1.23;59.24;101418.16;4404208;32;25356;-83
2022/12/20 02:48:08;;;;;;;51.42;19.12;;;;;;;1.39;59.25;101430.63;4410883;32;20094;-83
2022/12/20 02:50:39;;;;;;;41.83;16.12;;;;;;;1.51;59.26;101425.03;4426279;32;20120;-85
2022/12/20 02:53:10;;;;;;;45.85;17.48;;;;;;;1.41;59.26;101420.41;4389273;32;20450;-84
2022/12/20 02:55:46;;;;;;;48.20;17.73;;;;;;;1.40;59.26;101414.41;4405622;32;20110;-84
2022/12/20 02:58:26;;;;;;;49.20;18.50;;;;;;;1.16;59.24;101413.63;4395225;32;20172;-85
2022/12/20 03:00:51;;;;;;;52.92;19.30;;;;;;;1.24;59.24;101401.94;4425475;32;20100;-84
2022/12/20 03:03:23;;;;;;;43.30;16.85;;;;;;;1.14;59.24;101393.06;4397381;32;20130;-86
2022/12/20 03:05:50;;;;;;;45.35;18.25;;;;;;;1.37;59.25;101398.91;4397103;32;20157;-84
2022/12/20 03:08:42;;;;;;;49.17;18.77;;;;;;;1.16;59.24;101396.53;4419982;32;20101;-84
2022/12/20 03:11:11;;;;;;;51.05;18.42;;;;;;;1.36;59.25;101392.03;4392327;32;20136;-85
2022/12/20 03:13:36;;;;;;;50.55;18.98;;;;;;;1.24;59.24;101401.94;4414029;32;20144;-85
2022/12/20 03:16:24;;;;;;;51.15;19.50;;;;;;;1.36;59.25;101407.44;4412329;32;20166;-85
2022/12/20 03:18:49;;;;;;;42.30;17.52;;;;;;;1.39;59.25;101393.84;4407884;32;20174;-83
2022/12/20 03:21:14;;;;;;;43.33;17.77;;;;;;;1.18;59.24;101394.91;4401002;32;20193;-82
2022/12/20 03:23:40;;;;;;;50.00;17.58;;;;;;;1.23;59.24;101397.62;4409211;32;24142;-85
2022/12/20 03:26:05;;;;;;;43.90;18.08;;;;;;;1.14;59.23;101387.06;4409630;32;20171;-83
2022/12/20 03:28:31;;;;;;;42.67;17.02;;;;;;;1.26;59.25;101387.47;4396884;32;21607;-83
2022/12/20 03:30:56;;;;;;;52.83;18.70;;;;;;;1.19;59.24;101380.41;4397067;32;20351;-85
2022/12/20 03:33:21;;;;;;;49.28;17.40;;;;;;;1.28;59.25;101390.94;4397271;32;20154;-83
2022/12/20 03:35:47;;;;;;;53.35;20.15;;;;;;;1.19;59.24;101395.78;4397553;32;23021;-83
2022/12/20 03:38:12;;;;;;;44.85;17.90;;;;;;;1.25;59.25;101395.97;4399784;32;20121;-83
2022/12/20 03:40:38;;;;;;;48.17;17.70;;;;;;;1.36;59.25;101394.59;4413351;32;27524;-83
2022/12/20 03:43:03;;;;;;;49.40;17.95;;;;;;;1.26;59.25;101397.72;4393636;32;24801;-83
2022/12/20 03:45:29;;;;;;;44.28;18.23;;;;;;;1.28;59.25;101396.06;4400156;32;20173;-83
2022/12/20 03:47:54;;;;;;;40.47;17.15;;;;;;;1.32;59.24;101409.87;4415875;32;20113;-84
2022/12/20 03:50:20;;;;;;;46.92;18.83;;;;;;;1.39;59.25;101401.53;4401566;32;20478;-83
2022/12/20 03:52:45;;;;;;;50.30;17.12;;;;;;;1.33;59.25;101397.09;4409970;32;20418;-83
2022/12/20 03:55:11;;;;;;;41.78;17.98;;;;;;;1.19;59.24;101395.78;4395292;32;23523;-84
2022/12/20 03:57:37;;;;;;;50.72;18.15;;;;;;;1.13;59.23;101393.00;4397185;32;20449;-83
2022/12/20 04:00:03;;;;;;;45.70;16.15;;;;;;;1.35;59.25;101392.00;4409742;32;20445;-83
2022/12/20 04:02:28;;;;;;;39.95;16.67;;;;;;;1.28;59.25;101387.50;4419623;32;20350;-83
2022/12/20 04:04:53;;;;;;;49.97;17.70;;;;;;;1.26;59.25;101384.91;4409396;32;21616;-83
2022/12/20 04:07:19;;;;;;;39.67;17.20;;;;;;;1.30;59.25;101385.84;4407009;32;20212;-84
2022/12/20 04:09:44;;;;;;;45.03;17.40;;;;;;;1.42;59.25;101376.88;4406770;32;24846;-84
2022/12/20 04:12:10;;;;;;;47.05;16.65;;;;;;;1.36;59.25;101373.22;4409967;32;20138;-85
2022/12/20 04:14:36;;;;;;;41.22;16.70;;;;;;;1.19;59.24;101358.19;4397224;32;20542;-84
2022/12/20 04:17:01;;;;;;;39.42;15.77;;;;;;;1.34;59.25;101352.66;4412607;32;20124;-84
2022/12/20 04:19:27;;;;;;;50.40;17.75;;;;;;;1.28;59.24;101347.34;4389284;32;20350;-83
2022/12/20 04:21:54;;;;;;;45.50;16.77;;;;;;;1.15;59.24;101340.06;4407156;32;20125;-84
2022/12/20 04:24:20;;;;;;;44.35;16.48;;;;;;;1.13;59.24;101336.59;4420001;32;20101;-83
2022/12/20 04:26:45;;;;;;;41.42;15.73;;;;;;;1.12;59.24;101332.28;4404150;32;20461;-85
2022/12/20 04:29:10;;;;;;;41.17;15.23;;;;;;;1.16;59.24;101339.25;4379233;32;21709;-84
2022/12/20 04:31:36;;;;;;;42.80;16.77;;;;;;;1.25;59.23;101328.41;4393921;32;20424;-84
2022/12/20 04:34:01;;;;;;;42.60;16.20;;;;;;;1.33;59.25;101327.81;4397221;32;20109;-84
2022/12/20 04:36:27;;;;;;;37.22;16.10;;;;;;;1.28;59.25;101331.94;4403933;32;26082;-84
2022/12/20 04:38:52;;;;;;;43.58;16.60;;;;;;;1.20;59.24;101324.03;4390248;32;20101;-85
2022/12/20 04:41:21;;;;;;;41.80;15.65;;;;;;;1.37;59.25;101328.78;4402587;32;20113;-85
2022/12/20 04:44:04;;;;;;;41.85;16.12;;;;;;;1.36;59.25;101333.03;4412235;32;20109;-86
2022/12/20 04:46:30;;;;;;;41.05;14.60;;;;;;;1.45;59.25;101332.47;4397321;32;20225;-84
2022/12/20 04:48:55;;;;;;;41.50;15.68;;;;;;;1.38;59.24;101327.94;4396675;32;26832;-84
2022/12/20 04:51:20;;;;;;;44.35;15.65;;;;;;;1.33;59.25;101332.94;4383383;32;25876;-83
2022/12/20 04:53:46;;;;;;;39.33;15.35;;;;;;;1.35;59.25;101346.69;4418890;32;20163;-83
2022/12/20 04:56:19;;;;;;;43.83;16.90;;;;;;;1.44;59.25;101352.13;4409309;32;20163;-84
2022/12/20 04:58:45;;;;;;;41.22;15.48;;;;;;;1.47;59.25;101359.03;4386895;32;20164;-84
2022/12/20 05:01:11;;;;;;;39.97;14.75;;;;;;;1.36;59.25;101352.69;4409239;32;20166;-83
2022/12/20 05:03:36;;;;;;;40.00;16.73;;;;;;;1.51;59.26;101359.19;4409204;32;20226;-83
2022/12/20 05:06:02;;;;;;;44.10;16.25;;;;;;;1.52;59.26;101360.91;4396428;32;20164;-83
2022/12/20 05:08:27;;;;;;;38.92;15.73;;;;;;;1.61;59.26;101351.75;4374044;32;20145;-82
2022/12/20 05:10:52;;;;;;;34.38;16.08;;;;;;;1.57;59.26;101353.34;4396006;32;22484;-83
2022/12/20 05:13:18;;;;;;;40.28;16.00;;;;;;;1.59;59.26;101361.09;4408410;32;23206;-83
2022/12/20 05:15:43;;;;;;;39.75;15.88;;;;;;;1.38;59.25;101367.31;4409193;32;20117;-83
2022/12/20 05:18:09;;;;;;;41.30;15.30;;;;;;;1.46;59.25;101360.75;4408638;32;20089;-83
2022/12/20 05:20:34;;;;;;;36.42;14.52;;;;;;;1.51;59.26;101372.00;4396254;32;20094;-83
2022/12/20 05:28:32;;;;;;;38.53;14.98;;;;;;;1.48;59.25;101376.19;4401206;32;20108;-84
2022/12/20 05:30:57;;;;;;;40.15;15.90;;;;;;;1.52;59.26;101378.88;4374008;32;20412;-83
2022/12/20 05:33:23;;;;;;;37.33;15.48;;;;;;;1.53;59.26;101374.62;4403160;32;20446;-84
2022/12/20 05:35:48;;;;;;;36.47;15.50;;;;;;;1.43;59.26;101372.59;4384198;32;23626;-84
2022/12/20 05:38:14;;;;;;;42.95;15.18;;;;;;;1.48;59.26;101369.34;4396533;32;20159;-84
2022/12/20 05:40:39;;;;;;;44.72;17.00;;;;;;;1.44;59.25;101361.50;4395361;32;26773;-83
2022/12/20 05:43:05;;;;;;;41.60;15.80;;;;;;;1.50;59.26;101370.25;4394394;32;20153;-85
2022/12/20 05:45:30;;;;;;;43.63;15.48;;;;;;;1.32;59.24;101374.81;4379417;32;20109;-86
2022/12/20 05:47:56;;;;;;;44.25;16.00;;;;;;;1.48;59.25;101363.34;4391771;32;20439;-86
2022/12/20 05:50:21;;;;;;;37.13;14.63;;;;;;;1.36;59.25;101360.38;4384964;32;20125;-86
2022/12/20 05:52:46;;;;;;;38.63;14.82;;;;;;;1.57;59.26;101361.03;4409237;32;27189;-86
2022/12/20 05:55:12;;;;;;;41.40;14.75;;;;;;;1.33;59.24;101352.59;4396903;32;24847;-86
2022/12/20 05:57:37;;;;;;;39.35;15.27;;;;;;;1.42;59.26;101355.44;4409807;32;20142;-86
2022/12/20 06:00:04;;;;;;;43.50;15.25;;;;;;;1.32;59.24;101341.47;4408964;32;20778;-85
2022/12/20 06:02:29;;;;;;;35.15;15.27;;;;;;;1.25;59.24;101336.13;4379391;32;20155;-85
2022/12/20 06:04:55;;;;;;;43.65;14.93;;;;;;;1.25;59.25;101342.13;4408707;32;20181;-86
2022/12/20 06:07:20;;;;;;;38.97;15.23;;;;;;;1.22;59.24;101340.31;4402665;32;20105;-86
2022/12/20 06:09:46;;;;;;;43.75;16.12;;;;;;;1.15;59.24;101337.50;4377032;32;20439;-86
2022/12/20 06:12:12;;;;;;;42.08;16.50;;;;;;;1.31;59.24;101338.84;4374266;32;20122;-86
2022/12/20 06:14:38;;;;;;;38.55;14.82;;;;;;;1.20;59.24;101323.16;4410220;32;20158;-86
2022/12/20 06:17:03;;;;;;;42.28;15.80;;;;;;;1.12;59.24;101325.47;4364930;32;20093;-85
2022/12/20 06:19:29;;;;;;;42.62;15.85;;;;;;;1.16;59.24;101334.13;4409184;32;20122;-86
2022/12/20 06:21:54;;;;;;;37.10;15.95;;;;;;;1.20;59.24;101320.59;4384507;32;20148;-86
2022/12/20 06:24:20;;;;;;;38.60;16.20;;;;;;;1.20;59.25;101315.47;4389496;32;20381;-85
2022/12/20 06:26:45;;;;;;;39.05;16.15;;;;;;;1.32;59.24;101312.38;4384048;32;20122;-86
2022/12/20 06:29:13;;;;;;;47.03;16.50;;;;;;;1.31;59.24;101332.03;4399077;32;20169;-86
2022/12/20 06:31:39;;;;;;;39.28;15.77;;;;;;;1.29;59.25;101330.25;4394110;32;20132;-85
2022/12/20 06:34:04;;;;;;;42.17;15.63;;;;;;;1.10;59.23;101324.53;4392216;32;20102;-85
2022/12/20 06:36:30;;;;;;;40.42;15.32;;;;;;;1.11;59.24;101325.41;4383728;32;20105;-85
2022/12/20 06:38:55;;;;;;;37.03;15.60;;;;;;;1.35;59.25;101328.72;4398684;32;20887;-85
2022/12/20 06:41:21;;;;;;;44.85;17.25;;;;;;;1.24;59.24;101327.56;4413386;32;27371;-84
2022/12/20 06:43:46;;;;;;;45.15;16.15;;;;;;;0.92;59.22;101317.12;4386266;32;20431;-85
2022/12/20 06:46:11;;;;;;;46.75;16.90;;;;;;;0.99;59.23;101319.91;4401679;32;20112;-84
2022/12/20 06:48:37;;;;;;;43.90;17.70;;;;;;;1.21;59.24;101320.63;4401511;32;20106;-85
2022/12/20 06:51:02;;;;;;;44.58;16.23;;;;;;;1.07;59.23;101313.31;4402657;32;25739;-85
2022/12/20 06:53:28;;;;;;;43.58;15.52;;;;;;;1.10;59.23;101303.16;4388032;32;20161;-84
2022/12/20 06:55:53;;;;;;;43.35;16.48;;;;;;;1.20;59.24;101298.37;4410372;32;20136;-85
2022/12/20 06:58:18;;;;;;;42.47;16.00;;;;;;;1.26;59.25;101305.38;4419682;32;21426;-85
2022/12/20 07:00:44;;;;;;;36.72;15.63;;;;;;;1.22;59.24;101308.69;4406535;32;20148;-86
2022/12/20 07:03:09;;;;;;;40.25;16.90;;;;;;;1.14;59.24;101303.28;4404545;32;23503;-85
2022/12/20 07:05:35;;;;;;;41.15;15.13;;;;;;;1.19;59.24;101299.19;4400470;32;20909;-84
2022/12/20 07:08:03;;;;;;;40.58;16.65;;;;;;;1.33;59.25;101297.03;4401271;32;20177;-85
2022/12/20 07:10:28;;;;;;;36.58;15.60;;;;;;;1.43;59.26;101295.63;4440977;32;20109;-85
2022/12/20 07:12:54;;;;;;;32.50;14.18;;;;;;;1.27;59.25;101296.84;4406866;32;20137;-85
2022/12/20 07:15:21;;;;;;;39.15;15.65;;;;;;;1.36;59.25;101291.13;4400190;32;20452;-85
2022/12/20 07:17:46;;;;;;;39.20;15.05;;;;;;;1.35;59.25;101287.69;4396136;32;20162;-85
2022/12/20 07:20:11;;;;;;;42.78;16.17;;;;;;;1.41;59.26;101287.84;4399356;32;20141;-85
2022/12/20 07:22:37;;;;;;;31.62;13.18;;;;;;;1.34;59.25;101290.22;4408428;32;20097;-86
2022/12/20 07:25:03;;;;;;;37.83;14.43;;;;;;;1.42;59.26;101287.06;4403893;32;20109;-85
2022/12/20 07:27:28;;;;;;;38.13;15.13;;;;;;;1.51;59.26;101294.16;4401058;32;20101;-86
2022/12/20 07:29:53;;;;;;;36.78;14.07;;;;;;;1.63;59.26;101301.31;4413530;32;20169;-85
2022/12/20 07:32:19;;;;;;;32.70;14.00;;;;;;;1.65;59.27;101307.38;4403926;32;20154;-85
2022/12/20 07:34:44;;;;;;;40.38;14.32;;;;;;;1.71;59.27;101310.12;4421472;32;20153;-86
2022/12/20 07:37:09;;;;;;;37.33;15.23;;;;;;;1.89;59.27;101315.75;4407181;32;26746;-85
2022/12/20 07:39:35;;;;;;;33.13;13.68;;;;;;;1.82;59.27;101319.00;4398785;32;20522;-85
2022/12/20 07:42:00;;;;;;;35.92;13.50;;;;;;;1.80;59.27;101313.81;4389230;32;20125;-86
2022/12/20 07:44:26;;;;;;;33.90;14.32;;;;;;;1.70;59.27;101311.84;4420669;32;20137;-86
2022/12/20 07:46:52;;;;;;;30.77;11.68;;;;;;;1.72;59.27;101306.75;4398905;32;20109;-86
2022/12/20 07:49:17;;;;;;;30.65;11.98;;;;;;;1.81;59.28;101307.84;4402841;32;20599;-86
2022/12/20 07:51:50;;;;;;;31.70;12.68;;;;;;;1.85;59.28;101298.53;4404521;32;20383;-85
2022/12/20 07:54:25;;;;;;;23.83;11.30;;;;;;;1.87;59.28;101290.87;4400861;32;20116;-86
2022/12/20 07:56:53;;;;;;;31.33;12.52;;;;;;;1.90;59.28;101281.59;4414273;32;20062;-86
2022/12/20 07:59:22;;;;;;;29.35;12.50;;;;;;;1.87;59.28;101278.03;4395645;32;20093;-85
2022/12/20 08:01:47;;;;;;;31.60;11.30;;;;;;;1.81;59.28;101284.75;4421123;32;20109;-85
2022/12/20 08:04:14;;;;;;;31.77;12.37;;;;;;;1.90;59.28;101291.84;4395722;32;20130;-85
2022/12/20 08:06:40;;;;;;;27.92;12.20;;;;;;;1.98;59.29;101292.94;4422340;32;20116;-86
2022/12/20 08:09:06;;;;;;;32.90;12.37;;;;;;;2.13;59.29;101274.50;4417461;32;20105;-86
2022/12/20 08:11:32;;;;;;;25.90;11.27;;;;;;;1.81;59.28;101255.62;4425676;32;20397;-85
2022/12/20 08:13:58;;;;;;;35.40;13.68;;;;;;;1.97;59.28;101246.66;4411215;32;20151;-86
2022/12/20 08:16:23;;;;;;;36.88;15.05;;;;;;;1.74;59.27;101253.75;4410735;32;20113;-84
2022/12/20 08:18:48;;;;;;;34.40;13.23;;;;;;;1.82;59.27;101249.69;4403973;32;20125;-86
2022/12/20 08:21:14;;;;;;;33.65;13.23;;;;;;;2.10;59.29;101246.16;4401728;32;27833;-84
2022/12/20 08:23:40;;;;;;;40.92;16.15;;;;;;;2.20;59.30;101247.28;4404155;32;20128;-84
2022/12/20 08:26:05;;;;;;;39.20;14.98;;;;;;;2.25;59.31;101258.53;4381578;32;20094;-85
2022/12/20 08:28:31;;;;;;;31.98;12.60;;;;;;;2.33;59.31;101259.59;4397200;32;20124;-86
2022/12/20 08:31:03;;;;;;;33.40;13.38;;;;;;;2.47;59.31;101251.41;4411504;32;25366;-85
2022/12/20 08:33:29;;;;;;;32.13;13.43;;;;;;;2.54;59.31;101254.97;4393562;32;20469;-84
2022/12/20 08:36:02;;;;;;;33.38;12.68;;;;;;;2.55;59.31;101250.72;4420097;32;20126;-86
2022/12/20 08:38:28;;;;;;;36.08;14.00;;;;;;;2.71;59.33;101252.84;4410627;32;20739;-86
2022/12/20 08:40:53;;;;;;;32.25;13.35;;;;;;;2.81;59.33;101246.19;4398139;32;20438;-85
2022/12/20 08:43:18;;;;;;;30.45;12.40;;;;;;;2.74;59.33;101243.47;4398075;32;20366;-85
2022/12/20 08:45:44;;;;;;;33.15;13.43;;;;;;;2.78;59.33;101242.72;4412713;32;20141;-86
2022/12/20 08:48:09;;;;;;;24.17;11.93;;;;;;;2.83;59.34;101239.38;4401635;32;22553;-85
2022/12/20 08:50:35;;;;;;;28.45;11.75;;;;;;;2.78;59.32;101242.72;4422240;32;22751;-85
2022/12/20 08:53:00;;;;;;;26.58;12.27;;;;;;;2.78;59.33;101231.56;4404726;32;20466;-85
2022/12/20 08:55:28;;;;;;;28.80;12.23;;;;;;;2.64;59.32;101232.97;4420599;32;20098;-86
2022/12/20 08:57:53;;;;;;;36.75;12.23;;;;;;;2.77;59.33;101230.69;4409994;32;23672;-84
2022/12/20 09:00:19;;;;;;;27.33;12.23;;;;;;;2.80;59.34;101232.47;4397267;32;21557;-85
2022/12/20 09:02:46;;;;;;;28.40;11.70;;;;;;;2.73;59.33;101228.88;4410466;32;20111;-85
2022/12/20 09:05:12;;;;;;;24.80;11.12;;;;;;;2.68;59.33;101227.91;4398058;32;20151;-83
2022/12/20 09:07:37;;;;;;;30.37;12.07;;;;;;;2.57;59.32;101239.63;4397026;32;20133;-85
2022/12/20 09:10:03;;;;;;;30.92;11.93;;;;;;;2.66;59.33;101241.56;4393611;32;20105;-84
2022/12/20 09:12:28;;;;;;;25.02;11.65;;;;;;;2.71;59.32;101245.97;4395121;32;20136;-85
2022/12/20 09:14:54;;;;;;;38.25;15.50;;;;;;;2.95;59.35;101244.81;4390797;32;20133;-84
2022/12/20 09:17:20;;;;;;;31.67;13.50;;;;;;;2.84;59.34;101251.41;4413450;32;20477;-85
2022/12/20 09:19:45;;;;;;;30.58;13.35;;;;;;;2.93;59.34;101249.06;4390875;32;20469;-83
2022/12/20 09:22:11;;;;;;;36.42;14.05;;;;;;;2.96;59.34;101241.41;4419294;32;20149;-84
2022/12/20 09:24:36;;;;;;;34.58;15.00;;;;;;;3.21;59.35;101253.13;4420746;32;20121;-86
2022/12/20 09:27:02;;;;;;;36.72;13.75;;;;;;;3.14;59.35;101253.81;4412370;32;20123;-84
2022/12/20 09:29:27;;;;;;;40.53;15.70;;;;;;;3.28;59.36;101242.97;4402877;32;20098;-85
2022/12/20 09:31:53;;;;;;;34.47;13.82;;;;;;;3.28;59.36;101234.38;4412383;32;20426;-85
2022/12/20 09:34:18;;;;;;;40.83;15.38;;;;;;;3.12;59.35;101222.91;4400351;32;20094;-84
2022/12/20 09:36:43;;;;;;;34.70;13.15;;;;;;;3.10;59.36;101208.28;4404357;32;20176;-85
2022/12/20 09:39:09;;;;;;;34.75;13.27;;;;;;;3.26;59.36;101203.47;4401715;32;20188;-85
2022/12/20 09:41:41;;;;;;;30.73;12.07;;;;;;;3.33;59.36;101200.22;4397444;32;20104;-86
2022/12/20 09:44:19;;;;;;;27.27;11.57;;;;;;;3.19;59.36;101193.91;4397190;32;20077;-85
2022/12/20 09:46:48;;;;;;;31.02;12.15;;;;;;;3.24;59.35;101186.28;4387065;32;20513;-85
2022/12/20 09:49:15;;;;;;;34.03;14.75;;;;;;;3.36;59.36;101182.25;4419517;32;20127;-85
2022/12/20 09:51:59;;;;;;;25.83;11.88;;;;;;;3.51;59.37;101188.53;4397126;32;20162;-84
2022/12/20 09:54:51;;;;;;;32.95;13.70;;;;;;;3.68;59.39;101180.28;4408993;32;20128;-86
2022/12/20 09:57:27;;;;;;;28.90;13.25;;;;;;;3.68;59.37;101182.00;4406823;32;20102;-84
2022/12/20 09:59:54;;;;;;;29.23;13.15;;;;;;;3.64;59.38;101183.66;4390994;32;20105;-85
2022/12/20 10:02:21;;;;;;;26.20;11.52;;;;;;;3.76;59.39;101172.69;4409092;32;20089;-85
2022/12/20 10:04:47;;;;;;;26.90;12.98;;;;;;;3.90;59.39;101175.53;4418520;32;20085;-86
2022/12/20 10:07:41;;;;;;;76.12;40.08;;;;;;;4.12;59.42;101179.37;4392714;32;20141;-85
2022/12/20 10:10:24;;;;;;;55.67;29.35;;;;;;;4.13;59.41;101178.53;4416175;32;20438;-85
2022/12/20 10:13:04;;;;;;;35.63;13.70;;;;;;;4.16;59.41;101176.00;4406263;32;20438;-85
2022/12/20 10:15:50;;;;;;;27.35;11.57;;;;;;;3.94;59.39;101178.19;4414870;32;20100;-85
2022/12/20 10:18:34;;;;;;;23.95;11.00;;;;;;;4.06;59.40;101164.66;4401815;32;20351;-85
2022/12/20 10:21:16;;;;;;;35.72;12.57;;;;;;;4.34;59.41;101163.41;4412247;32;20772;-84
2022/12/20 10:23:45;;;;;;;28.75;10.98;;;;;;;4.41;59.42;101162.66;4396438;32;20094;-85
2022/12/20 10:26:11;;;;;;;30.02;12.37;;;;;;;4.55;59.43;101168.03;4419817;32;20108;-86
2022/12/20 10:28:37;;;;;;;26.50;11.55;;;;;;;4.66;59.44;101166.47;4391275;32;20764;-85
2022/12/20 10:31:05;;;;;;;25.12;12.23;;;;;;;4.80;59.45;101153.78;4391347;32;20180;-85
2022/12/20 10:33:30;;;;;;;31.42;12.85;;;;;;;4.83;59.44;101146.09;4408994;32;20104;-86
2022/12/20 10:36:23;;;;;;;27.70;11.95;;;;;;;4.86;59.44;101134.09;4396419;32;20105;-86
2022/12/20 10:38:51;;;;;;;27.83;11.88;;;;;;;5.02;59.46;101124.84;4401137;32;20476;-85
2022/12/20 10:41:21;;;;;;;25.95;10.77;;;;;;;5.10;59.46;101118.03;4397304;32;20097;-85
2022/12/20 10:43:51;;;;;;;;;;;;;;;5.18;59.47;101110.38;4400763;32;20389;-87
2022/12/20 10:46:16;;;;;;;24.77;11.57;;;;;;;5.39;59.48;101109.75;4408615;32;19998;-87
2022/12/20 10:48:45;;;;;;;24.52;11.23;;;;;;;5.54;59.49;101108.22;4403143;32;20102;-87
2022/12/20 10:51:13;;;;;;;25.00;12.15;;;;;;;5.29;59.47;101110.53;4421283;32;20089;-87
2022/12/20 10:54:02;;;;;;;22.67;10.00;;;;;;;5.36;59.47;101105.44;4411312;32;20094;-87
2022/12/20 10:56:31;;;;;;;26.35;10.65;;;;;;;5.42;59.48;101104.63;4387828;32;20404;-85
2022/12/20 10:59:01;;;;;;;26.35;10.55;;;;;;;5.42;59.48;101094.28;4413684;32;20089;-85
2022/12/20 11:01:32;;;;;;;24.42;10.75;;;;;;;5.32;59.48;101085.59;4413868;32;20172;-86
2022/12/20 11:04:05;;;;;;;23.42;11.15;;;;;;;5.39;59.48;101089.09;4413783;32;20474;-85
2022/12/20 11:06:37;;;;;;;26.87;11.68;;;;;;;5.42;59.48;101084.84;4401759;32;20121;-86
2022/12/20 11:09:28;;;;;;;27.33;11.60;;;;;;;5.51;59.48;101069.44;4426868;32;20097;-87
2022/12/20 11:12:09;;;;;;;27.87;11.88;;;;;;;4.96;59.45;101060.22;4427000;32;20097;-87
2022/12/20 11:14:35;;;;;;;25.27;10.70;;;;;;;5.05;59.46;101062.94;4441726;32;20093;-87
2022/12/20 11:17:23;;;;;;;26.42;10.30;;;;;;;5.04;59.46;101043.16;4401827;32;20445;-87
2022/12/20 11:20:12;;;;;;;30.60;11.73;;;;;;;5.03;59.46;101038.84;4429766;32;20154;-86
2022/12/20 11:23:08;;;;;;;26.27;11.10;;;;;;;4.91;59.45;101042.12;4416737;32;20219;-86
2022/12/20 11:26:19;;;;;;;22.90;10.65;;;;;;;4.65;59.44;101056.41;4429916;32;20120;-87
2022/12/20 11:29:03;;;;;;;26.48;11.40;;;;;;;4.69;59.44;101063.34;4378719;32;20642;-87
2022/12/20 11:31:31;;;;;;;23.83;10.48;;;;;;;4.61;59.43;101060.66;4378488;32;20103;-86
2022/12/20 11:34:14;;;;;;;24.15;10.57;;;;;;;4.72;59.43;101057.34;4415971;32;20131;-87
2022/12/20 11:36:49;;;;;;;28.23;11.10;;;;;;;4.77;59.44;101061.75;4416059;32;20101;-86